sensor_id;sensor_type;location;lat;lon;timestamp;P1;durP1;ratioP1;P2;durP2;ratioP2
8572;SDS011;4324;42.012;24.872;2024-03-02T00:01:35;35.20;;;22.70;;
8572;SDS011;4324;42.012;24.872;2024-03-02T00:04:02;33.83;;;23.27;;
8572;SDS011;4324;42.012;24.872;2024-03-02T00:06:31;35.07;;;23.80;;
8572;SDS011;4324;42.012;24.872;2024-03-02T00:09:00;34.83;;;22.50;;
8572;SDS011;4324;42.012;24.872;2024-03-02T00:11:27;34.43;;;23.27;;
8572;SDS011;4324;42.012;24.872;2024-03-02T00:13:54;37.07;;;24.10;;
8572;SDS011;4324;42.012;24.872;2024-03-02T00:16:21;33.13;;;23.23;;
8572;SDS011;4324;42.012;24.872;2024-03-02T00:18:49;37.03;;;24.97;;
8572;SDS011;4324;42.012;24.872;2024-03-02T00:21:16;34.33;;;24.40;;
8572;SDS011;4324;42.012;24.872;2024-03-02T00:23:45;38.53;;;24.13;;
8572;SDS011;4324;42.012;24.872;2024-03-02T00:26:13;37.33;;;25.73;;
8572;SDS011;4324;42.012;24.872;2024-03-02T00:28:42;37.93;;;26.43;;
8572;SDS011;4324;42.012;24.872;2024-03-02T00:31:11;38.73;;;25.50;;
8572;SDS011;4324;42.012;24.872;2024-03-02T00:33:39;42.33;;;27.63;;
8572;SDS011;4324;42.012;24.872;2024-03-02T00:36:08;40.83;;;26.03;;
8572;SDS011;4324;42.012;24.872;2024-03-02T00:38:40;44.17;;;26.40;;
8572;SDS011;4324;42.012;24.872;2024-03-02T00:41:15;41.50;;;25.40;;
8572;SDS011;4324;42.012;24.872;2024-03-02T00:43:45;42.27;;;26.43;;
8572;SDS011;4324;42.012;24.872;2024-03-02T00:46:15;44.87;;;27.07;;
8572;SDS011;4324;42.012;24.872;2024-03-02T00:48:53;44.97;;;25.80;;
8572;SDS011;4324;42.012;24.872;2024-03-02T00:51:21;45.90;;;25.80;;
8572;SDS011;4324;42.012;24.872;2024-03-02T00:53:49;47.57;;;28.23;;
8572;SDS011;4324;42.012;24.872;2024-03-02T00:56:17;50.80;;;28.23;;
8572;SDS011;4324;42.012;24.872;2024-03-02T00:58:44;43.53;;;26.57;;
8572;SDS011;4324;42.012;24.872;2024-03-02T01:01:11;44.43;;;28.03;;
8572;SDS011;4324;42.012;24.872;2024-03-02T01:03:38;49.07;;;27.87;;
8572;SDS011;4324;42.012;24.872;2024-03-02T01:06:04;48.40;;;26.50;;
8572;SDS011;4324;42.012;24.872;2024-03-02T01:08:32;55.30;;;29.30;;
8572;SDS011;4324;42.012;24.872;2024-03-02T01:11:00;58.43;;;28.97;;
8572;SDS011;4324;42.012;24.872;2024-03-02T01:13:28;52.43;;;27.87;;
8572;SDS011;4324;42.012;24.872;2024-03-02T01:15:55;62.77;;;30.03;;
8572;SDS011;4324;42.012;24.872;2024-03-02T01:18:22;53.33;;;28.53;;
8572;SDS011;4324;42.012;24.872;2024-03-02T01:20:49;54.20;;;28.93;;
8572;SDS011;4324;42.012;24.872;2024-03-02T01:23:18;59.50;;;30.03;;
8572;SDS011;4324;42.012;24.872;2024-03-02T01:25:45;59.70;;;30.00;;
8572;SDS011;4324;42.012;24.872;2024-03-02T01:28:12;54.67;;;28.90;;
8572;SDS011;4324;42.012;24.872;2024-03-02T01:30:41;51.63;;;28.00;;
8572;SDS011;4324;42.012;24.872;2024-03-02T01:33:08;53.63;;;28.17;;
8572;SDS011;4324;42.012;24.872;2024-03-02T01:35:35;50.27;;;27.63;;
8572;SDS011;4324;42.012;24.872;2024-03-02T01:38:03;51.63;;;28.60;;
8572;SDS011;4324;42.012;24.872;2024-03-02T01:40:31;55.33;;;29.80;;
8572;SDS011;4324;42.012;24.872;2024-03-02T01:42:59;52.63;;;29.83;;
8572;SDS011;4324;42.012;24.872;2024-03-02T01:45:26;55.50;;;30.90;;
8572;SDS011;4324;42.012;24.872;2024-03-02T01:47:54;62.67;;;30.83;;
8572;SDS011;4324;42.012;24.872;2024-03-02T01:50:24;64.83;;;31.57;;
8572;SDS011;4324;42.012;24.872;2024-03-02T01:52:52;69.27;;;31.37;;
8572;SDS011;4324;42.012;24.872;2024-03-02T01:55:19;57.07;;;29.10;;
8572;SDS011;4324;42.012;24.872;2024-03-02T01:57:46;66.60;;;30.57;;
8572;SDS011;4324;42.012;24.872;2024-03-02T02:00:14;60.43;;;30.67;;
8572;SDS011;4324;42.012;24.872;2024-03-02T02:02:41;64.33;;;30.40;;
8572;SDS011;4324;42.012;24.872;2024-03-02T02:05:10;56.73;;;29.90;;
8572;SDS011;4324;42.012;24.872;2024-03-02T02:07:37;56.27;;;28.53;;
8572;SDS011;4324;42.012;24.872;2024-03-02T02:10:05;61.27;;;30.13;;
8572;SDS011;4324;42.012;24.872;2024-03-02T02:12:32;67.63;;;33.57;;
8572;SDS011;4324;42.012;24.872;2024-03-02T02:14:59;63.20;;;30.27;;
8572;SDS011;4324;42.012;24.872;2024-03-02T02:17:26;56.47;;;28.50;;
8572;SDS011;4324;42.012;24.872;2024-03-02T02:19:53;53.77;;;27.30;;
8572;SDS011;4324;42.012;24.872;2024-03-02T02:22:21;55.17;;;27.13;;
8572;SDS011;4324;42.012;24.872;2024-03-02T02:24:48;56.20;;;26.97;;
8572;SDS011;4324;42.012;24.872;2024-03-02T02:27:15;54.60;;;26.87;;
8572;SDS011;4324;42.012;24.872;2024-03-02T02:29:41;57.40;;;27.23;;
8572;SDS011;4324;42.012;24.872;2024-03-02T02:32:08;52.80;;;26.27;;
8572;SDS011;4324;42.012;24.872;2024-03-02T02:34:35;50.10;;;27.43;;
8572;SDS011;4324;42.012;24.872;2024-03-02T02:37:02;54.07;;;27.60;;
8572;SDS011;4324;42.012;24.872;2024-03-02T02:39:30;50.37;;;26.17;;
8572;SDS011;4324;42.012;24.872;2024-03-02T02:41:57;52.87;;;27.07;;
8572;SDS011;4324;42.012;24.872;2024-03-02T02:44:26;50.70;;;25.70;;
8572;SDS011;4324;42.012;24.872;2024-03-02T02:46:53;53.10;;;25.30;;
8572;SDS011;4324;42.012;24.872;2024-03-02T02:49:20;54.13;;;25.87;;
8572;SDS011;4324;42.012;24.872;2024-03-02T02:51:47;49.67;;;24.30;;
8572;SDS011;4324;42.012;24.872;2024-03-02T02:54:14;46.57;;;25.23;;
8572;SDS011;4324;42.012;24.872;2024-03-02T02:56:43;50.30;;;24.67;;
8572;SDS011;4324;42.012;24.872;2024-03-02T02:59:10;45.90;;;26.03;;
8572;SDS011;4324;42.012;24.872;2024-03-02T03:01:37;46.43;;;26.70;;
8572;SDS011;4324;42.012;24.872;2024-03-02T03:04:04;45.40;;;25.13;;
8572;SDS011;4324;42.012;24.872;2024-03-02T03:06:30;44.70;;;25.33;;
8572;SDS011;4324;42.012;24.872;2024-03-02T03:08:57;49.87;;;25.27;;
8572;SDS011;4324;42.012;24.872;2024-03-02T03:11:24;46.87;;;24.93;;
8572;SDS011;4324;42.012;24.872;2024-03-02T03:13:53;50.57;;;25.80;;
8572;SDS011;4324;42.012;24.872;2024-03-02T03:16:20;48.77;;;25.67;;
8572;SDS011;4324;42.012;24.872;2024-03-02T03:18:47;42.80;;;24.20;;
8572;SDS011;4324;42.012;24.872;2024-03-02T03:21:16;44.43;;;24.80;;
8572;SDS011;4324;42.012;24.872;2024-03-02T03:23:43;45.70;;;24.57;;
8572;SDS011;4324;42.012;24.872;2024-03-02T03:26:10;44.37;;;24.83;;
8572;SDS011;4324;42.012;24.872;2024-03-02T03:28:37;38.77;;;23.70;;
8572;SDS011;4324;42.012;24.872;2024-03-02T03:31:05;42.40;;;25.33;;
8572;SDS011;4324;42.012;24.872;2024-03-02T03:33:32;43.37;;;23.67;;
8572;SDS011;4324;42.012;24.872;2024-03-02T03:35:59;40.67;;;24.27;;
8572;SDS011;4324;42.012;24.872;2024-03-02T03:38:28;41.83;;;24.47;;
8572;SDS011;4324;42.012;24.872;2024-03-02T03:40:55;41.17;;;23.67;;
8572;SDS011;4324;42.012;24.872;2024-03-02T03:43:22;38.97;;;23.33;;
8572;SDS011;4324;42.012;24.872;2024-03-02T03:45:49;39.13;;;21.97;;
8572;SDS011;4324;42.012;24.872;2024-03-02T03:48:18;42.80;;;25.37;;
8572;SDS011;4324;42.012;24.872;2024-03-02T03:50:45;42.20;;;25.57;;
8572;SDS011;4324;42.012;24.872;2024-03-02T03:53:12;43.40;;;26.17;;
8572;SDS011;4324;42.012;24.872;2024-03-02T03:55:40;39.73;;;24.17;;
8572;SDS011;4324;42.012;24.872;2024-03-02T03:58:06;42.93;;;23.07;;
8572;SDS011;4324;42.012;24.872;2024-03-02T04:00:33;38.70;;;23.27;;
8572;SDS011;4324;42.012;24.872;2024-03-02T04:03:00;45.10;;;25.30;;
8572;SDS011;4324;42.012;24.872;2024-03-02T04:05:28;41.83;;;23.97;;
8572;SDS011;4324;42.012;24.872;2024-03-02T04:07:55;45.23;;;26.10;;
8572;SDS011;4324;42.012;24.872;2024-03-02T04:10:22;43.93;;;24.80;;
8572;SDS011;4324;42.012;24.872;2024-03-02T04:12:49;46.87;;;26.83;;
8572;SDS011;4324;42.012;24.872;2024-03-02T04:15:16;46.97;;;26.37;;
8572;SDS011;4324;42.012;24.872;2024-03-02T04:17:44;46.67;;;25.90;;
8572;SDS011;4324;42.012;24.872;2024-03-02T04:20:11;50.77;;;26.97;;
8572;SDS011;4324;42.012;24.872;2024-03-02T04:22:40;48.40;;;25.87;;
8572;SDS011;4324;42.012;24.872;2024-03-02T04:25:07;46.30;;;27.07;;
8572;SDS011;4324;42.012;24.872;2024-03-02T04:27:34;51.90;;;26.90;;
8572;SDS011;4324;42.012;24.872;2024-03-02T04:30:02;46.37;;;26.47;;
8572;SDS011;4324;42.012;24.872;2024-03-02T04:32:30;48.77;;;27.30;;
8572;SDS011;4324;42.012;24.872;2024-03-02T04:34:57;48.63;;;26.27;;
8572;SDS011;4324;42.012;24.872;2024-03-02T04:37:24;57.30;;;29.10;;
8572;SDS011;4324;42.012;24.872;2024-03-02T04:39:52;48.13;;;26.30;;
8572;SDS011;4324;42.012;24.872;2024-03-02T04:42:19;50.03;;;27.80;;
8572;SDS011;4324;42.012;24.872;2024-03-02T04:44:46;52.20;;;26.97;;
8572;SDS011;4324;42.012;24.872;2024-03-02T04:47:13;52.83;;;27.17;;
8572;SDS011;4324;42.012;24.872;2024-03-02T04:49:40;52.83;;;26.20;;
8572;SDS011;4324;42.012;24.872;2024-03-02T04:52:07;46.53;;;25.67;;
8572;SDS011;4324;42.012;24.872;2024-03-02T04:54:34;50.13;;;26.33;;
8572;SDS011;4324;42.012;24.872;2024-03-02T04:57:23;52.73;;;25.87;;
8572;SDS011;4324;42.012;24.872;2024-03-02T04:59:49;47.87;;;25.10;;
8572;SDS011;4324;42.012;24.872;2024-03-02T05:02:15;56.90;;;27.00;;
8572;SDS011;4324;42.012;24.872;2024-03-02T05:04:42;48.57;;;24.97;;
8572;SDS011;4324;42.012;24.872;2024-03-02T05:07:09;50.87;;;25.80;;
8572;SDS011;4324;42.012;24.872;2024-03-02T05:09:36;52.20;;;26.07;;
8572;SDS011;4324;42.012;24.872;2024-03-02T05:12:03;54.60;;;28.93;;
8572;SDS011;4324;42.012;24.872;2024-03-02T05:14:55;58.10;;;27.97;;
8572;SDS011;4324;42.012;24.872;2024-03-02T05:17:22;59.93;;;29.70;;
8572;SDS011;4324;42.012;24.872;2024-03-02T05:19:49;56.13;;;28.20;;
8572;SDS011;4324;42.012;24.872;2024-03-02T05:22:16;54.87;;;27.27;;
8572;SDS011;4324;42.012;24.872;2024-03-02T05:24:43;51.43;;;26.93;;
8572;SDS011;4324;42.012;24.872;2024-03-02T05:27:10;51.13;;;27.63;;
8572;SDS011;4324;42.012;24.872;2024-03-02T05:29:37;50.77;;;27.67;;
8572;SDS011;4324;42.012;24.872;2024-03-02T05:32:05;49.33;;;26.67;;
8572;SDS011;4324;42.012;24.872;2024-03-02T05:34:32;47.00;;;25.17;;
8572;SDS011;4324;42.012;24.872;2024-03-02T05:37:00;44.07;;;23.60;;
8572;SDS011;4324;42.012;24.872;2024-03-02T05:39:27;47.20;;;27.00;;
8572;SDS011;4324;42.012;24.872;2024-03-02T05:41:54;46.57;;;24.77;;
8572;SDS011;4324;42.012;24.872;2024-03-02T05:44:21;39.63;;;23.60;;
8572;SDS011;4324;42.012;24.872;2024-03-02T05:46:47;43.13;;;23.43;;
8572;SDS011;4324;42.012;24.872;2024-03-02T05:49:16;37.83;;;21.60;;
8572;SDS011;4324;42.012;24.872;2024-03-02T05:51:42;40.63;;;23.50;;
8572;SDS011;4324;42.012;24.872;2024-03-02T05:54:09;39.90;;;22.33;;
8572;SDS011;4324;42.012;24.872;2024-03-02T05:56:36;34.60;;;20.93;;
8572;SDS011;4324;42.012;24.872;2024-03-02T05:59:03;34.93;;;20.90;;
8572;SDS011;4324;42.012;24.872;2024-03-02T06:01:37;35.80;;;23.73;;
8572;SDS011;4324;42.012;24.872;2024-03-02T06:04:05;34.80;;;21.77;;
8572;SDS011;4324;42.012;24.872;2024-03-02T06:06:33;32.33;;;20.80;;
8572;SDS011;4324;42.012;24.872;2024-03-02T06:09:00;29.07;;;18.97;;
8572;SDS011;4324;42.012;24.872;2024-03-02T06:11:27;29.03;;;19.40;;
8572;SDS011;4324;42.012;24.872;2024-03-02T06:13:54;28.40;;;19.50;;
8572;SDS011;4324;42.012;24.872;2024-03-02T06:16:22;32.43;;;19.77;;
8572;SDS011;4324;42.012;24.872;2024-03-02T06:18:49;29.30;;;19.03;;
8572;SDS011;4324;42.012;24.872;2024-03-02T06:21:16;30.80;;;20.07;;
8572;SDS011;4324;42.012;24.872;2024-03-02T06:23:45;29.63;;;19.87;;
8572;SDS011;4324;42.012;24.872;2024-03-02T06:26:12;28.67;;;19.80;;
8572;SDS011;4324;42.012;24.872;2024-03-02T06:28:39;27.53;;;18.93;;
8572;SDS011;4324;42.012;24.872;2024-03-02T06:31:06;28.43;;;18.67;;
8572;SDS011;4324;42.012;24.872;2024-03-02T06:33:32;28.53;;;18.17;;
8572;SDS011;4324;42.012;24.872;2024-03-02T06:35:59;28.83;;;20.30;;
8572;SDS011;4324;42.012;24.872;2024-03-02T06:38:26;28.53;;;18.87;;
8572;SDS011;4324;42.012;24.872;2024-03-02T06:40:54;28.30;;;18.97;;
8572;SDS011;4324;42.012;24.872;2024-03-02T06:43:21;24.70;;;17.57;;
8572;SDS011;4324;42.012;24.872;2024-03-02T06:45:49;28.13;;;19.60;;
8572;SDS011;4324;42.012;24.872;2024-03-02T06:48:16;29.73;;;19.63;;
8572;SDS011;4324;42.012;24.872;2024-03-02T06:50:45;27.60;;;20.83;;
8572;SDS011;4324;42.012;24.872;2024-03-02T06:53:12;29.17;;;21.20;;
8572;SDS011;4324;42.012;24.872;2024-03-02T06:55:42;29.80;;;20.83;;
8572;SDS011;4324;42.012;24.872;2024-03-02T06:58:11;31.00;;;21.17;;
8572;SDS011;4324;42.012;24.872;2024-03-02T07:00:37;36.10;;;26.80;;
8572;SDS011;4324;42.012;24.872;2024-03-02T07:03:04;39.17;;;27.40;;
8572;SDS011;4324;42.012;24.872;2024-03-02T07:05:31;27.43;;;20.27;;
8572;SDS011;4324;42.012;24.872;2024-03-02T07:08:00;26.27;;;18.40;;
8572;SDS011;4324;42.012;24.872;2024-03-02T07:10:28;27.47;;;20.20;;
8572;SDS011;4324;42.012;24.872;2024-03-02T07:12:55;27.00;;;20.33;;
8572;SDS011;4324;42.012;24.872;2024-03-02T07:15:23;26.53;;;19.90;;
8572;SDS011;4324;42.012;24.872;2024-03-02T07:18:12;24.80;;;18.10;;
8572;SDS011;4324;42.012;24.872;2024-03-02T07:20:39;23.90;;;16.93;;
8572;SDS011;4324;42.012;24.872;2024-03-02T07:23:06;34.73;;;24.07;;
8572;SDS011;4324;42.012;24.872;2024-03-02T07:25:33;30.07;;;22.63;;
8572;SDS011;4324;42.012;24.872;2024-03-02T07:28:00;24.47;;;19.90;;
8572;SDS011;4324;42.012;24.872;2024-03-02T07:30:29;23.70;;;17.17;;
8572;SDS011;4324;42.012;24.872;2024-03-02T07:32:56;19.33;;;14.93;;
8572;SDS011;4324;42.012;24.872;2024-03-02T07:35:23;26.30;;;19.60;;
8572;SDS011;4324;42.012;24.872;2024-03-02T07:37:52;21.27;;;16.73;;
8572;SDS011;4324;42.012;24.872;2024-03-02T07:40:19;20.63;;;16.70;;
8572;SDS011;4324;42.012;24.872;2024-03-02T07:42:46;20.43;;;16.07;;
8572;SDS011;4324;42.012;24.872;2024-03-02T07:45:13;20.73;;;16.23;;
8572;SDS011;4324;42.012;24.872;2024-03-02T07:47:41;21.40;;;16.33;;
8572;SDS011;4324;42.012;24.872;2024-03-02T07:50:08;24.17;;;18.47;;
8572;SDS011;4324;42.012;24.872;2024-03-02T07:52:35;21.40;;;17.00;;
8572;SDS011;4324;42.012;24.872;2024-03-02T07:55:02;28.87;;;21.73;;
8572;SDS011;4324;42.012;24.872;2024-03-02T07:57:30;23.77;;;18.57;;
8572;SDS011;4324;42.012;24.872;2024-03-02T07:59:58;21.20;;;14.27;;
8572;SDS011;4324;42.012;24.872;2024-03-02T08:02:25;22.23;;;18.37;;
8572;SDS011;4324;42.012;24.872;2024-03-02T08:04:54;27.03;;;20.23;;
8572;SDS011;4324;42.012;24.872;2024-03-02T08:07:21;25.17;;;19.87;;
8572;SDS011;4324;42.012;24.872;2024-03-02T08:09:47;46.43;;;36.60;;
8572;SDS011;4324;42.012;24.872;2024-03-02T08:12:14;49.80;;;40.87;;
8572;SDS011;4324;42.012;24.872;2024-03-02T08:14:41;48.23;;;37.03;;
8572;SDS011;4324;42.012;24.872;2024-03-02T08:17:08;35.13;;;27.80;;
8572;SDS011;4324;42.012;24.872;2024-03-02T08:19:36;36.23;;;27.53;;
8572;SDS011;4324;42.012;24.872;2024-03-02T08:22:05;47.60;;;36.77;;
8572;SDS011;4324;42.012;24.872;2024-03-02T08:24:32;68.70;;;47.63;;
8572;SDS011;4324;42.012;24.872;2024-03-02T08:26:59;47.00;;;37.27;;
8572;SDS011;4324;42.012;24.872;2024-03-02T08:29:26;38.30;;;30.10;;
8572;SDS011;4324;42.012;24.872;2024-03-02T08:31:54;36.27;;;26.60;;
8572;SDS011;4324;42.012;24.872;2024-03-02T08:34:20;38.67;;;31.50;;
8572;SDS011;4324;42.012;24.872;2024-03-02T08:36:47;37.77;;;30.93;;
8572;SDS011;4324;42.012;24.872;2024-03-02T08:39:16;28.77;;;21.93;;
8572;SDS011;4324;42.012;24.872;2024-03-02T08:41:44;25.80;;;20.53;;
8572;SDS011;4324;42.012;24.872;2024-03-02T08:44:12;27.83;;;19.93;;
8572;SDS011;4324;42.012;24.872;2024-03-02T08:46:39;27.57;;;21.07;;
8572;SDS011;4324;42.012;24.872;2024-03-02T08:49:06;24.50;;;19.77;;
8572;SDS011;4324;42.012;24.872;2024-03-02T08:51:33;25.53;;;19.47;;
8572;SDS011;4324;42.012;24.872;2024-03-02T08:54:00;28.57;;;21.73;;
8572;SDS011;4324;42.012;24.872;2024-03-02T08:56:30;26.20;;;19.97;;
8572;SDS011;4324;42.012;24.872;2024-03-02T08:58:58;27.20;;;20.27;;
8572;SDS011;4324;42.012;24.872;2024-03-02T09:01:25;32.00;;;24.50;;
8572;SDS011;4324;42.012;24.872;2024-03-02T09:03:52;29.07;;;20.17;;
8572;SDS011;4324;42.012;24.872;2024-03-02T09:06:19;30.77;;;22.37;;
8572;SDS011;4324;42.012;24.872;2024-03-02T09:08:46;29.30;;;20.50;;
8572;SDS011;4324;42.012;24.872;2024-03-02T09:11:14;28.27;;;19.00;;
8572;SDS011;4324;42.012;24.872;2024-03-02T09:13:43;30.10;;;20.73;;
8572;SDS011;4324;42.012;24.872;2024-03-02T09:16:10;25.77;;;19.30;;
8572;SDS011;4324;42.012;24.872;2024-03-02T09:18:37;30.03;;;22.23;;
8572;SDS011;4324;42.012;24.872;2024-03-02T09:21:04;31.40;;;22.17;;
8572;SDS011;4324;42.012;24.872;2024-03-02T09:23:31;31.07;;;22.40;;
8572;SDS011;4324;42.012;24.872;2024-03-02T09:25:58;30.63;;;22.07;;
8572;SDS011;4324;42.012;24.872;2024-03-02T09:28:25;29.47;;;21.80;;
8572;SDS011;4324;42.012;24.872;2024-03-02T09:30:53;35.20;;;23.87;;
8572;SDS011;4324;42.012;24.872;2024-03-02T09:33:20;30.00;;;21.17;;
8572;SDS011;4324;42.012;24.872;2024-03-02T09:35:47;30.33;;;20.10;;
8572;SDS011;4324;42.012;24.872;2024-03-02T09:38:15;29.77;;;20.57;;
8572;SDS011;4324;42.012;24.872;2024-03-02T09:40:42;35.53;;;22.10;;
8572;SDS011;4324;42.012;24.872;2024-03-02T09:43:09;33.83;;;23.60;;
8572;SDS011;4324;42.012;24.872;2024-03-02T09:45:36;34.27;;;24.60;;
8572;SDS011;4324;42.012;24.872;2024-03-02T09:48:05;38.77;;;25.90;;
8572;SDS011;4324;42.012;24.872;2024-03-02T09:50:33;38.73;;;26.80;;
8572;SDS011;4324;42.012;24.872;2024-03-02T09:53:00;35.70;;;24.50;;
8572;SDS011;4324;42.012;24.872;2024-03-02T09:55:27;36.10;;;24.57;;
8572;SDS011;4324;42.012;24.872;2024-03-02T09:57:54;36.07;;;25.47;;
8572;SDS011;4324;42.012;24.872;2024-03-02T10:00:21;37.60;;;24.23;;
8572;SDS011;4324;42.012;24.872;2024-03-02T10:02:48;37.33;;;25.43;;
8572;SDS011;4324;42.012;24.872;2024-03-02T10:05:24;36.33;;;25.73;;
8572;SDS011;4324;42.012;24.872;2024-03-02T10:07:59;34.63;;;23.70;;
8572;SDS011;4324;42.012;24.872;2024-03-02T10:10:34;34.37;;;24.17;;
8572;SDS011;4324;42.012;24.872;2024-03-02T10:13:05;36.97;;;25.43;;
8572;SDS011;4324;42.012;24.872;2024-03-02T10:15:34;36.07;;;24.57;;
8572;SDS011;4324;42.012;24.872;2024-03-02T10:18:01;54.07;;;38.67;;
8572;SDS011;4324;42.012;24.872;2024-03-02T10:20:29;36.90;;;24.50;;
8572;SDS011;4324;42.012;24.872;2024-03-02T10:23:09;36.97;;;24.23;;
8572;SDS011;4324;42.012;24.872;2024-03-02T10:25:36;39.67;;;25.73;;
8572;SDS011;4324;42.012;24.872;2024-03-02T10:28:03;39.83;;;27.30;;
8572;SDS011;4324;42.012;24.872;2024-03-02T10:30:31;45.10;;;31.47;;
8572;SDS011;4324;42.012;24.872;2024-03-02T10:32:59;37.63;;;28.50;;
8572;SDS011;4324;42.012;24.872;2024-03-02T10:35:27;43.10;;;29.37;;
8572;SDS011;4324;42.012;24.872;2024-03-02T10:37:59;39.17;;;29.80;;
8572;SDS011;4324;42.012;24.872;2024-03-02T10:40:26;37.20;;;26.13;;
8572;SDS011;4324;42.012;24.872;2024-03-02T10:42:53;37.03;;;25.13;;
8572;SDS011;4324;42.012;24.872;2024-03-02T10:45:21;38.47;;;27.47;;
8572;SDS011;4324;42.012;24.872;2024-03-02T10:47:49;44.47;;;27.93;;
8572;SDS011;4324;42.012;24.872;2024-03-02T10:50:17;39.63;;;28.47;;
8572;SDS011;4324;42.012;24.872;2024-03-02T10:52:45;42.23;;;27.30;;
8572;SDS011;4324;42.012;24.872;2024-03-02T10:55:12;39.80;;;26.13;;
8572;SDS011;4324;42.012;24.872;2024-03-02T10:57:42;38.67;;;25.77;;
8572;SDS011;4324;42.012;24.872;2024-03-02T11:00:17;37.47;;;26.37;;
8572;SDS011;4324;42.012;24.872;2024-03-02T11:02:50;35.17;;;24.17;;
8572;SDS011;4324;42.012;24.872;2024-03-02T11:05:27;36.80;;;24.37;;
8572;SDS011;4324;42.012;24.872;2024-03-02T11:08:00;42.30;;;25.53;;
8572;SDS011;4324;42.012;24.872;2024-03-02T11:10:30;35.00;;;24.57;;
8572;SDS011;4324;42.012;24.872;2024-03-02T11:13:02;38.77;;;26.30;;
8572;SDS011;4324;42.012;24.872;2024-03-02T11:15:31;36.80;;;25.43;;
8572;SDS011;4324;42.012;24.872;2024-03-02T11:18:01;33.07;;;23.00;;
8572;SDS011;4324;42.012;24.872;2024-03-02T11:20:33;37.73;;;24.70;;
8572;SDS011;4324;42.012;24.872;2024-03-02T11:23:05;37.57;;;24.50;;
8572;SDS011;4324;42.012;24.872;2024-03-02T11:25:33;36.87;;;24.87;;
8572;SDS011;4324;42.012;24.872;2024-03-02T11:28:01;38.60;;;25.37;;
8572;SDS011;4324;42.012;24.872;2024-03-02T11:33:18;40.60;;;28.63;;
8572;SDS011;4324;42.012;24.872;2024-03-02T11:35:50;36.93;;;25.73;;
8572;SDS011;4324;42.012;24.872;2024-03-02T11:38:18;37.60;;;26.33;;
8572;SDS011;4324;42.012;24.872;2024-03-02T11:40:45;38.40;;;26.87;;
8572;SDS011;4324;42.012;24.872;2024-03-02T11:43:13;35.10;;;25.53;;
8572;SDS011;4324;42.012;24.872;2024-03-02T11:45:41;34.53;;;24.13;;
8572;SDS011;4324;42.012;24.872;2024-03-02T11:48:10;33.13;;;23.63;;
8572;SDS011;4324;42.012;24.872;2024-03-02T11:50:40;38.43;;;26.80;;
8572;SDS011;4324;42.012;24.872;2024-03-02T11:53:09;36.13;;;25.60;;
8572;SDS011;4324;42.012;24.872;2024-03-02T11:55:39;34.63;;;25.40;;
8572;SDS011;4324;42.012;24.872;2024-03-02T11:58:07;34.53;;;24.23;;
8572;SDS011;4324;42.012;24.872;2024-03-02T12:00:34;28.83;;;21.40;;
8572;SDS011;4324;42.012;24.872;2024-03-02T12:03:01;29.23;;;22.67;;
8572;SDS011;4324;42.012;24.872;2024-03-02T12:05:29;32.33;;;24.27;;
8572;SDS011;4324;42.012;24.872;2024-03-02T12:07:57;28.93;;;21.53;;
8572;SDS011;4324;42.012;24.872;2024-03-02T12:10:24;27.10;;;21.47;;
8572;SDS011;4324;42.012;24.872;2024-03-02T12:12:57;27.97;;;21.33;;
8572;SDS011;4324;42.012;24.872;2024-03-02T12:15:25;29.60;;;22.53;;
8572;SDS011;4324;42.012;24.872;2024-03-02T12:17:53;29.23;;;23.60;;
8572;SDS011;4324;42.012;24.872;2024-03-02T12:20:21;30.27;;;22.83;;
8572;SDS011;4324;42.012;24.872;2024-03-02T12:22:49;30.97;;;22.20;;
8572;SDS011;4324;42.012;24.872;2024-03-02T12:25:17;29.30;;;23.87;;
8572;SDS011;4324;42.012;24.872;2024-03-02T12:27:45;29.90;;;23.20;;
8572;SDS011;4324;42.012;24.872;2024-03-02T12:30:14;30.47;;;22.97;;
8572;SDS011;4324;42.012;24.872;2024-03-02T12:32:42;32.87;;;24.60;;
8572;SDS011;4324;42.012;24.872;2024-03-02T12:35:10;32.53;;;24.57;;
8572;SDS011;4324;42.012;24.872;2024-03-02T12:37:43;31.00;;;24.23;;
8572;SDS011;4324;42.012;24.872;2024-03-02T12:40:11;27.10;;;22.00;;
8572;SDS011;4324;42.012;24.872;2024-03-02T12:42:38;30.60;;;22.50;;
8572;SDS011;4324;42.012;24.872;2024-03-02T12:45:07;24.47;;;19.97;;
8572;SDS011;4324;42.012;24.872;2024-03-02T12:47:36;25.53;;;21.43;;
8572;SDS011;4324;42.012;24.872;2024-03-02T12:50:05;25.67;;;19.57;;
8572;SDS011;4324;42.012;24.872;2024-03-02T12:52:33;23.73;;;18.30;;
8572;SDS011;4324;42.012;24.872;2024-03-02T12:55:00;21.67;;;18.37;;
8572;SDS011;4324;42.012;24.872;2024-03-02T12:57:30;21.10;;;17.93;;
8572;SDS011;4324;42.012;24.872;2024-03-02T12:59:58;20.20;;;17.03;;
8572;SDS011;4324;42.012;24.872;2024-03-02T13:02:27;20.83;;;17.10;;
8572;SDS011;4324;42.012;24.872;2024-03-02T13:04:57;20.43;;;16.13;;
8572;SDS011;4324;42.012;24.872;2024-03-02T13:07:24;20.07;;;17.40;;
8572;SDS011;4324;42.012;24.872;2024-03-02T13:09:52;19.17;;;16.33;;
8572;SDS011;4324;42.012;24.872;2024-03-02T13:12:20;19.00;;;16.40;;
8572;SDS011;4324;42.012;24.872;2024-03-02T13:14:48;20.47;;;16.87;;
8572;SDS011;4324;42.012;24.872;2024-03-02T13:17:17;19.13;;;16.50;;
8572;SDS011;4324;42.012;24.872;2024-03-02T13:19:50;20.63;;;17.87;;
8572;SDS011;4324;42.012;24.872;2024-03-02T13:22:21;22.83;;;18.53;;
8572;SDS011;4324;42.012;24.872;2024-03-02T13:24:48;18.97;;;16.43;;
8572;SDS011;4324;42.012;24.872;2024-03-02T13:27:15;19.50;;;16.90;;
8572;SDS011;4324;42.012;24.872;2024-03-02T13:29:45;20.40;;;17.57;;
8572;SDS011;4324;42.012;24.872;2024-03-02T13:32:13;21.60;;;16.93;;
8572;SDS011;4324;42.012;24.872;2024-03-02T13:34:40;20.33;;;17.40;;
8572;SDS011;4324;42.012;24.872;2024-03-02T13:37:07;19.57;;;16.77;;
8572;SDS011;4324;42.012;24.872;2024-03-02T13:39:36;20.77;;;17.80;;
8572;SDS011;4324;42.012;24.872;2024-03-02T13:42:07;18.43;;;15.90;;
8572;SDS011;4324;42.012;24.872;2024-03-02T13:44:35;19.37;;;17.27;;
8572;SDS011;4324;42.012;24.872;2024-03-02T13:47:03;18.13;;;15.97;;
8572;SDS011;4324;42.012;24.872;2024-03-02T13:49:30;18.27;;;16.20;;
8572;SDS011;4324;42.012;24.872;2024-03-02T13:52:01;17.80;;;15.90;;
8572;SDS011;4324;42.012;24.872;2024-03-02T13:54:37;23.37;;;20.10;;
8572;SDS011;4324;42.012;24.872;2024-03-02T13:57:05;24.33;;;19.73;;
8572;SDS011;4324;42.012;24.872;2024-03-02T13:59:32;32.87;;;23.80;;
8572;SDS011;4324;42.012;24.872;2024-03-02T14:01:59;25.07;;;21.10;;
8572;SDS011;4324;42.012;24.872;2024-03-02T14:04:26;21.47;;;18.47;;
8572;SDS011;4324;42.012;24.872;2024-03-02T14:06:53;22.30;;;19.07;;
8572;SDS011;4324;42.012;24.872;2024-03-02T14:09:21;22.37;;;19.93;;
8572;SDS011;4324;42.012;24.872;2024-03-02T14:11:51;22.20;;;19.23;;
8572;SDS011;4324;42.012;24.872;2024-03-02T14:14:18;21.87;;;19.17;;
8572;SDS011;4324;42.012;24.872;2024-03-02T14:16:45;21.53;;;19.20;;
8572;SDS011;4324;42.012;24.872;2024-03-02T14:19:12;23.90;;;19.93;;
8572;SDS011;4324;42.012;24.872;2024-03-02T14:21:39;22.50;;;19.90;;
8572;SDS011;4324;42.012;24.872;2024-03-02T14:24:06;25.03;;;20.43;;
8572;SDS011;4324;42.012;24.872;2024-03-02T14:26:33;25.00;;;21.47;;
8572;SDS011;4324;42.012;24.872;2024-03-02T14:29:03;23.50;;;18.97;;
8572;SDS011;4324;42.012;24.872;2024-03-02T14:31:30;25.60;;;20.97;;
8572;SDS011;4324;42.012;24.872;2024-03-02T14:33:57;26.07;;;21.90;;
8572;SDS011;4324;42.012;24.872;2024-03-02T14:36:24;22.57;;;19.30;;
8572;SDS011;4324;42.012;24.872;2024-03-02T14:38:52;24.53;;;19.60;;
8572;SDS011;4324;42.012;24.872;2024-03-02T14:41:20;23.80;;;20.30;;